createdAt,value
2023-08-15T00:01:16.298Z,94.83
2023-08-15T00:04:18.578Z,95.16
2023-08-15T00:07:21.137Z,94.81
2023-08-15T00:10:23.551Z,94.24
2023-08-15T00:13:25.824Z,94.10
2023-08-15T00:16:28.185Z,94.16
2023-08-15T00:19:30.678Z,94.45
2023-08-15T00:22:32.936Z,94.86
2023-08-15T00:25:35.258Z,94.94
2023-08-15T00:28:37.475Z,95.06
2023-08-15T00:31:40.680Z,95.35
2023-08-15T00:34:42.925Z,95.26
2023-08-15T00:37:45.262Z,94.59
2023-08-15T00:40:47.581Z,94.23
2023-08-15T00:43:54.493Z,94.62
2023-08-15T00:46:56.922Z,94.81
2023-08-15T00:50:00.553Z,94.29
2023-08-15T00:53:04.170Z,94.55
2023-08-15T00:56:08.344Z,95.07
2023-08-15T00:59:10.594Z,94.31
2023-08-15T01:02:13.389Z,94.28
2023-08-15T01:05:17.277Z,94.56
2023-08-15T01:08:19.640Z,94.68
2023-08-15T01:11:21.914Z,94.68
2023-08-15T01:14:30.774Z,94.87
2023-08-15T01:17:38.298Z,94.32
2023-08-15T01:20:41.618Z,94.74
2023-08-15T01:23:47.163Z,94.06
2023-08-15T01:26:49.480Z,93.72
2023-08-15T01:29:51.706Z,95.13
2023-08-15T01:33:02.935Z,95.59
2023-08-15T01:36:22.586Z,95.19
2023-08-15T01:39:30.076Z,95.81
2023-08-15T01:42:33.016Z,95.11
2023-08-15T01:45:36.247Z,94.40
2023-08-15T01:48:42.797Z,94.79
2023-08-15T01:51:47.274Z,95.10
2023-08-15T01:54:49.580Z,95.15
2023-08-15T01:57:53.169Z,95.12
2023-08-15T02:00:55.504Z,94.88
2023-08-15T02:03:57.873Z,95.59
2023-08-15T02:07:00.329Z,95.14
2023-08-15T02:10:02.747Z,94.76
2023-08-15T02:13:05.128Z,94.48
2023-08-15T02:16:07.703Z,93.44
2023-08-15T02:19:10.090Z,93.52
2023-08-15T02:22:12.768Z,93.59
2023-08-15T02:25:15.185Z,94.18
2023-08-15T02:28:17.471Z,94.92
2023-08-15T02:31:19.811Z,95.47
2023-08-15T02:34:22.151Z,94.30
2023-08-15T02:37:24.388Z,93.32
2023-08-15T02:40:30.544Z,93.09
2023-08-15T02:43:33.072Z,93.64
2023-08-15T02:46:35.518Z,93.62
2023-08-15T02:49:37.854Z,93.57
2023-08-15T02:52:40.241Z,94.11
2023-08-15T02:55:42.484Z,93.74
2023-08-15T02:58:45.150Z,96.30
2023-08-15T03:01:48.561Z,96.45
2023-08-15T03:04:50.949Z,96.64
2023-08-15T03:07:53.685Z,97.00
2023-08-15T03:10:56.058Z,96.43
2023-08-15T03:13:59.598Z,96.19
2023-08-15T03:17:03.442Z,96.33
2023-08-15T03:20:07.344Z,96.44
2023-08-15T03:23:10.044Z,96.13
2023-08-15T03:26:13.226Z,95.93
2023-08-15T03:29:15.954Z,96.40
2023-08-15T03:32:18.185Z,96.52
2023-08-15T03:35:22.732Z,96.49
2023-08-15T03:38:25.445Z,96.11
2023-08-15T03:41:28.199Z,95.22
2023-08-15T03:44:30.469Z,95.11
2023-08-15T03:47:33.674Z,95.03
2023-08-15T03:50:37.331Z,95.32
2023-08-15T03:53:39.624Z,95.67
2023-08-15T03:56:42.274Z,95.05
2023-08-15T03:59:44.966Z,95.09
2023-08-15T04:02:48.464Z,95.18
2023-08-15T04:05:50.872Z,96.46
2023-08-15T04:08:53.102Z,97.12
2023-08-15T04:11:55.379Z,97.70
2023-08-15T04:14:57.628Z,98.13
2023-08-15T04:18:00.081Z,98.64
2023-08-15T04:21:11.388Z,97.69
2023-08-15T04:24:13.786Z,96.72
2023-08-15T04:27:22.791Z,96.10
2023-08-15T04:30:26.124Z,95.70
2023-08-15T04:33:28.420Z,95.94
2023-08-15T04:36:31.214Z,95.82
2023-08-15T04:39:33.486Z,95.94
2023-08-15T04:42:36.605Z,96.56
2023-08-15T04:45:42.188Z,96.13
2023-08-15T04:48:47.469Z,96.30
2023-08-15T04:51:49.899Z,96.17
2023-08-15T04:54:52.430Z,95.59
2023-08-15T04:57:54.754Z,95.13
2023-08-15T05:00:57.333Z,94.62
2023-08-15T05:04:01.320Z,94.26
2023-08-15T05:07:05.404Z,93.87
2023-08-15T05:10:09.503Z,92.99
2023-08-15T05:13:14.783Z,92.85
2023-08-15T05:16:17.092Z,92.43
2023-08-15T05:19:19.485Z,92.35
2023-08-15T05:22:21.716Z,92.61
2023-08-15T05:25:24.084Z,91.92
2023-08-15T05:28:26.515Z,91.88
2023-08-15T05:31:29.225Z,92.03
2023-08-15T05:34:31.492Z,91.84
2023-08-15T05:37:33.767Z,90.33
2023-08-15T05:40:36.099Z,89.12
2023-08-15T05:43:38.428Z,89.34
2023-08-15T05:46:40.709Z,89.87
2023-08-15T05:49:43.994Z,88.87
2023-08-15T05:52:46.264Z,88.15
2023-08-15T05:55:48.551Z,86.89
2023-08-15T05:58:50.797Z,86.57
2023-08-15T06:01:53.067Z,86.22
2023-08-15T06:04:55.278Z,85.67
2023-08-15T06:07:57.970Z,84.20
2023-08-15T06:11:00.259Z,83.51
2023-08-15T06:14:02.555Z,83.09
2023-08-15T06:17:06.242Z,82.63
2023-08-15T06:20:09.154Z,81.90
2023-08-15T06:23:11.431Z,80.58
2023-08-15T06:26:13.861Z,80.48
2023-08-15T06:29:16.070Z,80.18
2023-08-15T06:32:29.037Z,78.99
2023-08-15T06:35:31.745Z,78.34
2023-08-15T06:38:34.063Z,77.55
2023-08-15T06:41:36.287Z,77.92
2023-08-15T06:44:38.877Z,78.10
2023-08-15T06:47:41.262Z,76.88
2023-08-15T06:50:44.095Z,76.04
2023-08-15T06:53:54.151Z,73.40
2023-08-15T06:56:56.595Z,71.30
2023-08-15T06:59:58.932Z,71.75
2023-08-15T07:03:01.284Z,70.72
2023-08-15T07:06:05.264Z,70.16
2023-08-15T07:09:08.073Z,69.54
2023-08-15T07:12:11.049Z,69.56
2023-08-15T07:15:13.393Z,69.21
2023-08-15T07:18:15.685Z,69.25
2023-08-15T07:21:21.130Z,68.61
2023-08-15T07:24:24.469Z,68.71
2023-08-15T07:27:26.923Z,67.31
2023-08-15T07:30:30.172Z,67.76
2023-08-15T07:33:32.918Z,67.98
2023-08-15T07:36:35.768Z,65.74
2023-08-15T07:39:38.072Z,60.32
2023-08-15T07:42:40.427Z,58.18
2023-08-15T07:45:42.799Z,57.44
2023-08-15T07:48:45.521Z,57.77
2023-08-15T07:51:47.881Z,57.72
2023-08-15T07:54:50.139Z,58.93
2023-08-15T07:57:52.492Z,61.68
2023-08-15T08:00:54.758Z,59.53
2023-08-15T08:03:57.156Z,57.04
2023-08-15T08:06:59.552Z,56.36
2023-08-15T08:10:02.135Z,55.53
2023-08-15T08:13:07.644Z,53.76
2023-08-15T08:16:10.076Z,51.39
2023-08-15T08:19:12.349Z,51.88
2023-08-15T08:22:14.864Z,51.99
2023-08-15T08:25:25.084Z,50.35
2023-08-15T08:28:27.528Z,49.52
2023-08-15T08:31:29.845Z,48.56
2023-08-15T08:34:32.242Z,49.68
2023-08-15T08:37:34.583Z,50.25
2023-08-15T08:40:37.039Z,49.47
2023-08-15T08:43:40.924Z,49.44
2023-08-15T08:46:45.168Z,49.42
2023-08-15T08:49:49.227Z,50.15
2023-08-15T08:52:51.930Z,48.07
2023-08-15T08:55:54.280Z,46.56
2023-08-15T08:59:02.590Z,47.27
2023-08-15T09:02:06.295Z,45.57
2023-08-15T09:05:10.362Z,45.75
2023-08-15T09:08:12.770Z,45.62
2023-08-15T09:11:15.162Z,45.69
2023-08-15T09:14:18.575Z,45.88
2023-08-15T09:17:25.225Z,46.01
2023-08-15T09:20:28.151Z,44.72
2023-08-15T09:23:32.320Z,44.36
2023-08-15T09:26:36.551Z,44.85
2023-08-15T09:29:38.989Z,43.80
2023-08-15T09:32:43.006Z,44.51
2023-08-15T09:35:57.873Z,44.66
2023-08-15T09:39:01.595Z,44.10
2023-08-15T09:42:04.194Z,44.89
2023-08-15T09:45:08.552Z,44.89
2023-08-15T09:48:11.633Z,43.97
2023-08-15T09:51:19.334Z,43.38
2023-08-15T09:54:22.811Z,44.00
2023-08-15T09:57:26.922Z,44.14
2023-08-15T10:00:37.116Z,44.67
2023-08-15T10:03:46.190Z,44.24
2023-08-15T10:07:08.029Z,44.41
2023-08-15T10:10:16.591Z,44.96
2023-08-15T10:13:25.618Z,44.02
2023-08-15T10:16:28.999Z,43.03
2023-08-15T10:19:34.563Z,44.02
2023-08-15T10:22:36.858Z,42.87
2023-08-15T10:25:42.793Z,42.28
2023-08-15T10:28:47.448Z,42.13
2023-08-15T10:31:59.941Z,42.75
2023-08-15T10:35:04.045Z,40.44
2023-08-15T10:38:15.288Z,40.93
2023-08-15T10:41:21.528Z,42.35
2023-08-15T10:44:24.210Z,41.34
2023-08-15T10:47:26.453Z,41.57
2023-08-15T10:50:28.894Z,43.29
2023-08-15T10:53:31.232Z,42.43
2023-08-15T10:56:35.827Z,41.87
2023-08-15T10:59:38.182Z,42.60
2023-08-15T11:02:40.739Z,41.20
2023-08-15T11:05:43.476Z,42.41
2023-08-15T11:08:54.953Z,42.49
2023-08-15T11:12:06.081Z,41.67
2023-08-15T11:15:10.570Z,41.35
2023-08-15T11:18:21.742Z,41.23
2023-08-15T11:21:29.171Z,41.09
2023-08-15T11:24:32.501Z,42.28
2023-08-15T11:27:46.394Z,42.40
2023-08-15T11:30:48.804Z,40.90
2023-08-15T11:33:53.108Z,41.14
2023-08-15T11:36:55.594Z,40.67
2023-08-15T11:39:58.196Z,41.17
2023-08-15T11:43:01.351Z,41.14
2023-08-15T11:46:05.745Z,42.89
2023-08-15T11:49:16.621Z,42.97
2023-08-15T11:52:20.694Z,43.85
2023-08-15T11:55:24.182Z,40.37
2023-08-15T11:58:30.181Z,42.17
2023-08-15T12:01:42.861Z,42.86
2023-08-15T12:04:48.310Z,41.61
2023-08-15T12:07:51.270Z,42.52
2023-08-15T12:10:58.370Z,43.64
2023-08-15T12:14:00.662Z,43.99
2023-08-15T12:17:03.022Z,45.13
2023-08-15T12:20:07.823Z,45.92
2023-08-15T12:23:18.758Z,43.64
2023-08-15T12:26:27.108Z,41.33
2023-08-15T12:30:11.734Z,41.20
2023-08-15T12:32:52.084Z,40.56
2023-08-15T12:35:54.522Z,41.36
2023-08-15T12:38:56.788Z,43.68
2023-08-15T12:41:59.580Z,43.79
2023-08-15T12:45:01.833Z,42.82
2023-08-15T12:48:04.403Z,41.70
2023-08-15T12:51:06.681Z,41.75
2023-08-15T12:54:09.007Z,40.98
2023-08-15T12:57:11.493Z,40.64
2023-08-15T13:00:14.543Z,39.75
2023-08-15T13:03:16.962Z,41.05
2023-08-15T13:06:19.481Z,42.58
2023-08-15T13:09:21.873Z,42.44
2023-08-15T13:12:24.335Z,44.08
2023-08-15T13:15:27.079Z,43.87
2023-08-15T13:18:29.431Z,44.56
2023-08-15T13:21:31.822Z,46.18
2023-08-15T13:24:34.191Z,45.10
2023-08-15T13:27:36.509Z,45.75
2023-08-15T13:30:38.903Z,45.68
2023-08-15T13:33:42.643Z,47.67
2023-08-15T13:36:47.211Z,47.80
2023-08-15T13:39:49.473Z,47.16
2023-08-15T13:42:51.785Z,48.19
2023-08-15T13:45:54.101Z,49.04
2023-08-15T13:48:56.598Z,50.34
2023-08-15T13:51:58.836Z,51.02
2023-08-15T13:55:01.182Z,51.15
2023-08-15T13:58:04.104Z,50.60
2023-08-15T14:01:07.803Z,50.72
2023-08-15T14:04:10.021Z,53.56
2023-08-15T14:07:12.324Z,52.89
2023-08-15T14:10:15.098Z,50.97
2023-08-15T14:13:17.581Z,52.62
2023-08-15T14:16:19.902Z,57.57
2023-08-15T14:19:22.275Z,56.08
2023-08-15T14:22:24.839Z,58.91
2023-08-15T14:25:34.680Z,58.26
2023-08-15T14:28:36.937Z,61.04
2023-08-15T14:31:39.257Z,60.52
2023-08-15T14:34:41.521Z,56.60
2023-08-15T14:37:43.890Z,60.40
2023-08-15T14:40:46.504Z,61.41
2023-08-15T14:43:49.894Z,59.20
2023-08-15T14:46:52.146Z,66.24
2023-08-15T14:49:54.461Z,62.17
2023-08-15T14:52:56.754Z,62.41
2023-08-15T14:55:59.807Z,59.26
2023-08-15T14:59:02.027Z,56.61
2023-08-15T15:02:04.467Z,56.82
2023-08-15T15:05:07.670Z,57.18
2023-08-15T15:08:16.515Z,57.14
2023-08-15T15:11:25.416Z,56.95
2023-08-15T15:14:28.560Z,56.89
2023-08-15T15:17:30.810Z,56.90
2023-08-15T15:20:33.193Z,56.27
2023-08-15T15:23:35.500Z,56.76
2023-08-15T15:26:37.824Z,56.63
2023-08-15T15:29:40.150Z,55.92
2023-08-15T15:32:42.519Z,55.97
2023-08-15T15:35:44.852Z,56.55
2023-08-15T15:38:47.343Z,56.54
2023-08-15T15:41:49.627Z,56.76
2023-08-15T15:44:52.058Z,56.54
2023-08-15T15:47:54.402Z,56.22
2023-08-15T15:50:56.783Z,56.78
2023-08-15T15:53:59.030Z,57.06
2023-08-15T15:57:01.318Z,56.26
2023-08-15T16:00:03.993Z,56.28
2023-08-15T16:03:08.538Z,55.64
2023-08-15T16:06:10.898Z,55.82
2023-08-15T16:09:14.819Z,56.11
2023-08-15T16:12:17.055Z,55.94
2023-08-15T16:15:19.606Z,59.56
2023-08-15T16:18:21.873Z,60.10
2023-08-15T16:21:24.239Z,61.07
2023-08-15T16:24:26.507Z,59.94
2023-08-15T16:27:28.834Z,59.93
2023-08-15T16:30:31.097Z,58.76
2023-08-15T16:33:33.428Z,58.04
2023-08-15T16:36:36.052Z,55.98
2023-08-15T16:39:39.360Z,56.24
2023-08-15T16:42:41.667Z,55.59
2023-08-15T16:45:46.750Z,55.86
2023-08-15T16:48:49.284Z,56.55
2023-08-15T16:51:51.561Z,56.79
2023-08-15T16:54:53.785Z,57.49
2023-08-15T16:57:58.405Z,58.15
2023-08-15T17:01:00.674Z,58.74
2023-08-15T17:04:03.387Z,58.37
2023-08-15T17:07:05.776Z,59.13
2023-08-15T17:10:08.504Z,60.42
2023-08-15T17:13:10.826Z,59.59
2023-08-15T17:16:13.223Z,60.56
2023-08-15T17:19:15.459Z,60.56
2023-08-15T17:22:17.775Z,60.34
2023-08-15T17:25:20.005Z,60.13
2023-08-15T17:28:22.298Z,60.58
2023-08-15T17:31:24.628Z,60.96
2023-08-15T17:34:26.957Z,61.00
2023-08-15T17:37:29.200Z,61.54
2023-08-15T17:40:33.727Z,61.30
2023-08-15T17:43:37.390Z,61.31
2023-08-15T17:46:39.728Z,62.13
2023-08-15T17:49:42.038Z,62.71
2023-08-15T17:52:44.370Z,62.64
2023-08-15T17:55:46.584Z,63.37
2023-08-15T17:58:52.491Z,63.97
2023-08-15T18:01:55.002Z,64.26
2023-08-15T18:04:57.369Z,65.04
2023-08-15T18:07:59.633Z,65.53
2023-08-15T18:11:03.154Z,64.88
2023-08-15T18:14:07.501Z,64.98
2023-08-15T18:17:10.369Z,65.87
2023-08-15T18:20:12.600Z,65.93
2023-08-15T18:23:14.926Z,66.98
2023-08-15T18:26:17.226Z,67.75
2023-08-15T18:29:19.516Z,68.14
2023-08-15T18:32:22.176Z,68.82
2023-08-15T18:35:24.834Z,68.60
2023-08-15T18:38:31.247Z,70.69
2023-08-15T18:41:33.599Z,70.61
2023-08-15T18:44:35.824Z,69.75
2023-08-15T18:47:39.139Z,70.53
2023-08-15T18:50:45.407Z,70.36
2023-08-15T18:53:47.805Z,70.82
2023-08-15T18:56:50.137Z,69.61
2023-08-15T18:59:53.793Z,69.07
2023-08-15T19:02:56.125Z,69.47
2023-08-15T19:05:58.733Z,68.97
2023-08-15T19:09:00.979Z,68.90
2023-08-15T19:12:04.741Z,68.96
2023-08-15T19:15:07.627Z,68.85
2023-08-15T19:18:09.979Z,69.11
2023-08-15T19:21:14.214Z,69.42
2023-08-15T19:24:18.979Z,70.52
2023-08-15T19:27:22.048Z,70.41
2023-08-15T19:30:25.535Z,70.76
2023-08-15T19:33:27.882Z,71.06
2023-08-15T19:36:30.212Z,71.56
2023-08-15T19:39:32.527Z,72.28
2023-08-15T19:42:39.122Z,72.86
2023-08-15T19:45:41.415Z,73.20
2023-08-15T19:48:43.743Z,74.44
2023-08-15T19:51:45.984Z,77.24
2023-08-15T19:54:48.261Z,76.86
2023-08-15T19:57:50.606Z,76.67
2023-08-15T20:00:52.970Z,76.67
2023-08-15T20:03:55.205Z,77.57
2023-08-15T20:06:57.488Z,77.13
2023-08-15T20:10:10.901Z,78.25
2023-08-15T20:13:14.684Z,77.11
2023-08-15T20:16:16.966Z,78.22
2023-08-15T20:19:20.163Z,78.95
2023-08-15T20:22:23.102Z,80.31
2023-08-15T20:25:27.756Z,81.64
2023-08-15T20:28:30.021Z,81.39
2023-08-15T20:31:32.466Z,81.59
2023-08-15T20:34:34.899Z,81.23
2023-08-15T20:37:37.803Z,80.77
2023-08-15T20:40:40.304Z,80.80
2023-08-15T20:43:42.825Z,81.26
2023-08-15T20:46:45.130Z,82.36
2023-08-15T20:49:48.249Z,84.52
2023-08-15T20:52:51.735Z,85.10
2023-08-15T20:55:54.025Z,85.99
2023-08-15T20:58:56.661Z,86.70
2023-08-15T21:02:01.035Z,86.89
2023-08-15T21:05:04.276Z,86.60
2023-08-15T21:08:06.792Z,84.19
2023-08-15T21:11:09.309Z,84.79
2023-08-15T21:14:11.632Z,83.59
2023-08-15T21:17:13.863Z,84.86
2023-08-15T21:20:16.195Z,87.15
2023-08-15T21:23:18.549Z,87.11
2023-08-15T21:26:20.840Z,87.27
2023-08-15T21:29:23.068Z,87.57
2023-08-15T21:32:25.356Z,88.11
2023-08-15T21:35:27.654Z,88.10
2023-08-15T21:38:30.266Z,88.26
2023-08-15T21:41:32.515Z,87.87
2023-08-15T21:44:34.858Z,87.30
2023-08-15T21:47:37.243Z,87.71
2023-08-15T21:50:39.708Z,88.65
2023-08-15T21:53:42.000Z,88.67
2023-08-15T21:56:44.371Z,87.19
2023-08-15T21:59:46.705Z,86.65
2023-08-15T22:02:49.328Z,86.86
2023-08-15T22:05:51.641Z,87.45
2023-08-15T22:08:53.985Z,88.57
2023-08-15T22:11:56.229Z,90.12
2023-08-15T22:14:58.603Z,91.29
2023-08-15T22:18:18.832Z,92.14
2023-08-15T22:21:21.522Z,92.06
2023-08-15T22:24:23.996Z,92.29
2023-08-15T22:27:26.560Z,91.84
2023-08-15T22:30:28.810Z,90.75
2023-08-15T22:33:31.083Z,90.22
2023-08-15T22:36:34.101Z,90.04
2023-08-15T22:39:36.384Z,91.79
2023-08-15T22:42:38.594Z,92.99
2023-08-15T22:45:42.994Z,92.02
2023-08-15T22:48:45.305Z,91.89
2023-08-15T22:51:47.666Z,91.83
2023-08-15T22:54:49.961Z,91.42
2023-08-15T22:57:52.244Z,91.77
2023-08-15T23:00:58.160Z,90.82
2023-08-15T23:04:00.800Z,90.27
2023-08-15T23:07:03.134Z,90.02
2023-08-15T23:10:06.545Z,89.69
2023-08-15T23:13:08.840Z,89.84
2023-08-15T23:16:11.667Z,89.62
2023-08-15T23:19:13.999Z,89.98
2023-08-15T23:22:16.348Z,89.34
2023-08-15T23:25:18.595Z,89.73
2023-08-15T23:28:20.946Z,89.97
2023-08-15T23:31:32.859Z,90.07
2023-08-15T23:34:35.912Z,90.93
2023-08-15T23:37:38.732Z,90.72
2023-08-15T23:40:41.138Z,91.04
2023-08-15T23:43:43.366Z,91.24
2023-08-15T23:46:46.859Z,91.67
2023-08-15T23:49:49.256Z,93.44
2023-08-15T23:52:51.528Z,95.23
2023-08-15T23:55:53.729Z,94.54
2023-08-15T23:58:56.705Z,93.38
